Station History

Weather Underground - logo

Station Historical Data
Daily Summary for February 27, 2018 Units:  Both    English   Metric
« Previous Day
Next Day »
Daily Weekly Monthly Yearly Custom
  High: Low: Average:
Temperature: 50.6 °F /  10.3 °C 35.6 °F /  2 °C 43.2 °F /  6.2 °C
Dew Point: 42.3 °F /  5.7 °C 33.9 °F /  1.1 °C 39.5 °F /  4.2 °C
Humidity: 94 % 70 % 87 %
Wind Speed: 6.9 mph /  11.1 km/h - 0.6 mph /  1 km/h
Wind Gust: 6.9 mph /  11.1 km/h - -
Wind:- - SW
Pressure: 30.17 in /  1021.6 hPa 29.91 in /  1012.8 hPa -
Precipitation: 0.47 in /  11.94 mm    
Historical Graphs
 
 
Tabular Data for February 27, 2018
Time Temperature Dew Point Pressure Wind Wind Speed Wind Gust Humidity Rainfall Rate (Hourly)
00:04 43.5 °F /  6.4 °C 41.9 °F /  5.5 °C 29.91 in /  1012.8 hPa ESE 1.2 mph /  1.9 km/h   94 % 0.05 in /  1.27 mm
00:09 43.4 °F /  6.3 °C 41.8 °F /  5.4 °C 29.92 in /  1013.1 hPa Calm     94 % 0.04 in /  1.02 mm
00:14 43.4 °F /  6.3 °C 41.8 °F /  5.4 °C 29.92 in /  1013.1 hPa ESE 1.0 mph /  1.6 km/h 1.0 mph /  1.6 km/h 94 % 0.05 in /  1.27 mm
00:19 43.3 °F /  6.3 °C 41.7 °F /  5.4 °C 29.92 in /  1013.1 hPa Calm     94 % 0.05 in /  1.27 mm
00:24 43.2 °F /  6.2 °C 41.6 °F /  5.3 °C 29.92 in /  1013.1 hPa ESE 2.0 mph /  3.2 km/h 2.0 mph /  3.2 km/h 94 % 0.04 in /  1.02 mm
00:29 43.1 °F /  6.2 °C 41.5 °F /  5.3 °C 29.92 in /  1013.1 hPa ESE 1.2 mph /  1.9 km/h 1.2 mph /  1.9 km/h 94 % 0.05 in /  1.27 mm
00:34 43.0 °F /  6.1 °C 41.4 °F /  5.2 °C 29.92 in /  1013.1 hPa ESE 1.2 mph /  1.9 km/h 1.2 mph /  1.9 km/h 94 % 0.05 in /  1.27 mm
00:39 42.9 °F /  6.1 °C 41.3 °F /  5.2 °C 29.92 in /  1013.1 hPa ESE 2.3 mph /  3.7 km/h 2.3 mph /  3.7 km/h 94 % 0.05 in /  1.27 mm
00:44 42.7 °F /  5.9 °C 41.1 °F /  5.1 °C 29.92 in /  1013.1 hPa ESE 1.0 mph /  1.6 km/h 1.0 mph /  1.6 km/h 94 % 0.05 in /  1.27 mm
00:49 42.6 °F /  5.9 °C 41.0 °F /  5 °C 29.92 in /  1013.1 hPa ESE 1.2 mph /  1.9 km/h 1.2 mph /  1.9 km/h 94 % 0.06 in /  1.52 mm
00:54 42.6 °F /  5.9 °C 41.0 °F /  5 °C 29.92 in /  1013.1 hPa ESE 3.5 mph /  5.6 km/h 3.5 mph /  5.6 km/h 94 % 0.05 in /  1.27 mm
00:59 42.5 °F /  5.8 °C 40.9 °F /  4.9 °C 29.92 in /  1013.1 hPa ESE 2.3 mph /  3.7 km/h 2.3 mph /  3.7 km/h 94 % 0.05 in /  1.27 mm
01:04 42.4 °F /  5.8 °C 40.8 °F /  4.9 °C 29.92 in /  1013.1 hPa ESE 1.2 mph /  1.9 km/h 1.2 mph /  1.9 km/h 94 % 0.06 in /  1.52 mm
01:09 42.4 °F /  5.8 °C 40.8 °F /  4.9 °C 29.92 in /  1013.1 hPa ESE 1.2 mph /  1.9 km/h   94 % 0.06 in /  1.52 mm
01:14 42.3 °F /  5.7 °C 40.7 °F /  4.8 °C 29.92 in /  1013.1 hPa Calm   0.2 mph /  0.3 km/h 94 % 0.05 in /  1.27 mm
01:19 42.2 °F /  5.7 °C 40.6 °F /  4.8 °C 29.92 in /  1013.1 hPa Calm   0.4 mph /  0.6 km/h 94 % 0.05 in /  1.27 mm
01:24 42.1 °F /  5.6 °C 40.5 °F /  4.7 °C 29.92 in /  1013.1 hPa ESE 1.2 mph /  1.9 km/h 1.2 mph /  1.9 km/h 94 % 0.05 in /  1.27 mm
01:29 42.0 °F /  5.6 °C 40.4 °F /  4.7 °C 29.92 in /  1013.1 hPa ESE 1.2 mph /  1.9 km/h 1.2 mph /  1.9 km/h 94 % 0.04 in /  1.02 mm
01:34 42.0 °F /  5.6 °C 40.4 °F /  4.7 °C 29.92 in /  1013.1 hPa ESE 1.2 mph /  1.9 km/h   94 % 0.05 in /  1.27 mm
01:39 42.0 °F /  5.6 °C 40.4 °F /  4.7 °C 29.92 in /  1013.1 hPa ESE 1.2 mph /  1.9 km/h 1.2 mph /  1.9 km/h 94 % 0.05 in /  1.27 mm
01:45 41.9 °F /  5.5 °C 40.3 °F /  4.6 °C 29.92 in /  1013.1 hPa ESE 1.2 mph /  1.9 km/h 1.2 mph /  1.9 km/h 94 % 0.05 in /  1.27 mm
01:50 41.9 °F /  5.5 °C 40.3 °F /  4.6 °C 29.92 in /  1013.1 hPa ESE 1.2 mph /  1.9 km/h 1.2 mph /  1.9 km/h 94 % 0.05 in /  1.27 mm
01:55 41.8 °F /  5.4 °C 40.2 °F /  4.6 °C 29.92 in /  1013.1 hPa ESE 1.2 mph /  1.9 km/h   94 % 0.06 in /  1.52 mm
02:00 41.9 °F /  5.5 °C 40.3 °F /  4.6 °C 29.92 in /  1013.1 hPa ESE 1.2 mph /  1.9 km/h 1.2 mph /  1.9 km/h 94 % 0.06 in /  1.52 mm
02:05 41.8 °F /  5.4 °C 40.2 °F /  4.6 °C 29.92 in /  1013.1 hPa Calm     94 % 0.06 in /  1.52 mm
02:10 41.7 °F /  5.4 °C 40.1 °F /  4.5 °C 29.92 in /  1013.1 hPa ESE 1.2 mph /  1.9 km/h   94 % 0.06 in /  1.52 mm
02:15 41.7 °F /  5.4 °C 40.1 °F /  4.5 °C 29.92 in /  1013.1 hPa Calm     94 % 0.07 in /  1.78 mm
02:20 41.7 °F /  5.4 °C 40.1 °F /  4.5 °C 29.92 in /  1013.1 hPa ESE 1.2 mph /  1.9 km/h   94 % 0.06 in /  1.52 mm
02:25 41.6 °F /  5.3 °C 40.0 °F /  4.4 °C 29.92 in /  1013.1 hPa ESE 3.5 mph /  5.6 km/h 3.5 mph /  5.6 km/h 94 % 0.07 in /  1.78 mm
02:30 41.6 °F /  5.3 °C 40.0 °F /  4.4 °C 29.92 in /  1013.1 hPa ESE 1.2 mph /  1.9 km/h 1.2 mph /  1.9 km/h 94 % 0.07 in /  1.78 mm
02:35 41.5 °F /  5.3 °C 39.9 °F /  4.4 °C 29.92 in /  1013.1 hPa ESE 1.2 mph /  1.9 km/h 1.2 mph /  1.9 km/h 94 % 0.07 in /  1.78 mm
02:40 41.4 °F /  5.2 °C 39.8 °F /  4.3 °C 29.92 in /  1013.1 hPa ESE 1.2 mph /  1.9 km/h 1.2 mph /  1.9 km/h 94 % 0.06 in /  1.52 mm
02:45 41.3 °F /  5.2 °C 39.7 °F /  4.3 °C 29.92 in /  1013.1 hPa Calm     94 % 0.07 in /  1.78 mm
02:50 41.3 °F /  5.2 °C 39.7 °F /  4.3 °C 29.91 in /  1012.8 hPa Calm     94 % 0.07 in /  1.78 mm
02:55 41.2 °F /  5.1 °C 39.6 °F /  4.2 °C 29.91 in /  1012.8 hPa ESE 1.2 mph /  1.9 km/h   94 % 0.06 in /  1.52 mm
03:00 41.1 °F /  5.1 °C 39.5 °F /  4.2 °C 29.91 in /  1012.8 hPa ESE 1.2 mph /  1.9 km/h   94 % 0.07 in /  1.78 mm
03:05 41.1 °F /  5.1 °C 39.5 °F /  4.2 °C 29.91 in /  1012.8 hPa Calm     94 % 0.07 in /  1.78 mm
03:10 41.1 °F /  5.1 °C 39.5 °F /  4.2 °C 29.91 in /  1012.8 hPa Calm     94 % 0.08 in /  2.03 mm
03:15 41.0 °F /  5 °C 39.4 °F /  4.1 °C 29.91 in /  1012.8 hPa Calm     94 % 0.08 in /  2.03 mm
03:20 40.9 °F /  4.9 °C 39.3 °F /  4.1 °C 29.91 in /  1012.8 hPa Calm     94 % 0.08 in /  2.03 mm
03:25 40.9 °F /  4.9 °C 39.3 °F /  4.1 °C 29.91 in /  1012.8 hPa Calm     94 % 0.08 in /  2.03 mm
03:30 40.9 °F /  4.9 °C 39.3 °F /  4.1 °C 29.91 in /  1012.8 hPa ESE 1.2 mph /  1.9 km/h   94 % 0.07 in /  1.78 mm
03:35 40.9 °F /  4.9 °C 39.3 °F /  4.1 °C 29.91 in /  1012.8 hPa ESE 1.2 mph /  1.9 km/h 1.2 mph /  1.9 km/h 94 % 0.07 in /  1.78 mm
03:40 40.8 °F /  4.9 °C 39.2 °F /  4 °C 29.91 in /  1012.8 hPa Calm     94 % 0.08 in /  2.03 mm
03:45 40.8 °F /  4.9 °C 39.2 °F /  4 °C 29.91 in /  1012.8 hPa Calm     94 % 0.07 in /  1.78 mm
03:50 40.8 °F /  4.9 °C 39.2 °F /  4 °C 29.91 in /  1012.8 hPa Calm     94 % 0.06 in /  1.52 mm
03:55 40.8 °F /  4.9 °C 39.2 °F /  4 °C 29.91 in /  1012.8 hPa Calm     94 % 0.06 in /  1.52 mm
04:01 40.9 °F /  4.9 °C 39.3 °F /  4.1 °C 29.91 in /  1012.8 hPa Calm     94 % 0.05 in /  1.27 mm
04:06 40.9 °F /  4.9 °C 39.3 °F /  4.1 °C 29.91 in /  1012.8 hPa Calm     94 % 0.04 in /  1.02 mm
04:11 40.8 °F /  4.9 °C 39.2 °F /  4 °C 29.91 in /  1012.8 hPa Calm     94 % 0.04 in /  1.02 mm
04:16 40.7 °F /  4.8 °C 39.1 °F /  3.9 °C 29.92 in /  1013.1 hPa Calm     94 % 0.03 in /  0.76 mm
04:21 40.7 °F /  4.8 °C 39.1 °F /  3.9 °C 29.92 in /  1013.1 hPa Calm     94 % 0.03 in /  0.76 mm
04:26 40.8 °F /  4.9 °C 39.2 °F /  4 °C 29.92 in /  1013.1 hPa Calm     94 % 0.03 in /  0.76 mm
04:31 40.8 °F /  4.9 °C 39.2 °F /  4 °C 29.91 in /  1012.8 hPa Calm     94 % 0.03 in /  0.76 mm
04:36 40.9 °F /  4.9 °C 39.3 °F /  4.1 °C 29.91 in /  1012.8 hPa Calm     94 % 0.04 in /  1.02 mm
04:41 40.7 °F /  4.8 °C 39.1 °F /  3.9 °C 29.92 in /  1013.1 hPa Calm     94 % 0.03 in /  0.76 mm
04:46 40.8 °F /  4.9 °C 39.2 °F /  4 °C 29.92 in /  1013.1 hPa Calm     94 % 0.04 in /  1.02 mm
04:51 40.9 °F /  4.9 °C 39.3 °F /  4.1 °C 29.92 in /  1013.1 hPa Calm     94 % 0.04 in /  1.02 mm
04:56 40.9 °F /  4.9 °C 39.3 °F /  4.1 °C 29.92 in /  1013.1 hPa Calm     94 % 0.05 in /  1.27 mm
05:01 40.9 °F /  4.9 °C 39.3 °F /  4.1 °C 29.92 in /  1013.1 hPa Calm     94 % 0.05 in /  1.27 mm
05:06 40.9 °F /  4.9 °C 39.3 °F /  4.1 °C 29.93 in /  1013.4 hPa Calm     94 % 0.06 in /  1.52 mm
05:11 40.9 °F /  4.9 °C 39.3 °F /  4.1 °C 29.93 in /  1013.4 hPa Calm     94 % 0.06 in /  1.52 mm
05:16 40.9 °F /  4.9 °C 39.3 °F /  4.1 °C 29.93 in /  1013.4 hPa Calm     94 % 0.06 in /  1.52 mm
05:21 40.9 °F /  4.9 °C 39.3 °F /  4.1 °C 29.92 in /  1013.1 hPa ESE 1.2 mph /  1.9 km/h   94 % 0.07 in /  1.78 mm
05:26 40.8 °F /  4.9 °C 39.2 °F /  4 °C 29.92 in /  1013.1 hPa ESE 1.2 mph /  1.9 km/h 1.2 mph /  1.9 km/h 94 % 0.07 in /  1.78 mm
05:31 40.8 °F /  4.9 °C 39.2 °F /  4 °C 29.93 in /  1013.4 hPa Calm     94 % 0.07 in /  1.78 mm
05:36 40.8 °F /  4.9 °C 39.2 °F /  4 °C 29.93 in /  1013.4 hPa Calm     94 % 0.07 in /  1.78 mm
05:41 40.8 °F /  4.9 °C 39.2 °F /  4 °C 29.93 in /  1013.4 hPa Calm     94 % 0.07 in /  1.78 mm
05:46 40.7 °F /  4.8 °C 39.1 °F /  3.9 °C 29.93 in /  1013.4 hPa Calm     94 % 0.07 in /  1.78 mm
05:51 40.7 °F /  4.8 °C 39.1 °F /  3.9 °C 29.94 in /  1013.8 hPa Calm     94 % 0.08 in /  2.03 mm
05:56 40.6 °F /  4.8 °C 39.0 °F /  3.9 °C 29.93 in /  1013.4 hPa Calm     94 % 0.08 in /  2.03 mm
06:01 40.5 °F /  4.7 °C 38.9 °F /  3.8 °C 29.93 in /  1013.4 hPa Calm     94 % 0.08 in /  2.03 mm
06:06 40.5 °F /  4.7 °C 38.9 °F /  3.8 °C 29.94 in /  1013.8 hPa Calm     94 % 0.08 in /  2.03 mm
06:11 40.4 °F /  4.7 °C 38.5 °F /  3.6 °C 29.94 in /  1013.8 hPa Calm     93 % 0.07 in /  1.78 mm
06:16 40.4 °F /  4.7 °C 38.8 °F /  3.8 °C 29.94 in /  1013.8 hPa Calm     94 % 0.08 in /  2.03 mm
06:21 40.3 °F /  4.6 °C 38.4 °F /  3.6 °C 29.94 in /  1013.8 hPa ESE 1.2 mph /  1.9 km/h   93 % 0.07 in /  1.78 mm
06:26 40.3 °F /  4.6 °C 38.4 °F /  3.6 °C 29.94 in /  1013.8 hPa ESE 1.2 mph /  1.9 km/h   93 % 0.07 in /  1.78 mm
06:31 40.2 °F /  4.6 °C 38.3 °F /  3.5 °C 29.94 in /  1013.8 hPa Calm     93 % 0.07 in /  1.78 mm
06:36 40.2 °F /  4.6 °C 38.3 °F /  3.5 °C 29.94 in /  1013.8 hPa Calm     93 % 0.07 in /  1.78 mm
06:41 40.2 °F /  4.6 °C 38.3 °F /  3.5 °C 29.94 in /  1013.8 hPa Calm     93 % 0.08 in /  2.03 mm
06:46 40.2 °F /  4.6 °C 38.6 °F /  3.7 °C 29.94 in /  1013.8 hPa Calm     94 % 0.08 in /  2.03 mm
06:51 40.1 °F /  4.5 °C 38.5 °F /  3.6 °C 29.95 in /  1014.1 hPa Calm     94 % 0.07 in /  1.78 mm
06:56 40.1 °F /  4.5 °C 38.5 °F /  3.6 °C 29.95 in /  1014.1 hPa Calm     94 % 0.06 in /  1.52 mm
07:01 40.1 °F /  4.5 °C 38.5 °F /  3.6 °C 29.96 in /  1014.4 hPa Calm     94 % 0.07 in /  1.78 mm
07:06 40.1 °F /  4.5 °C 38.5 °F /  3.6 °C 29.96 in /  1014.4 hPa Calm     94 % 0.06 in /  1.52 mm
07:11 40.1 °F /  4.5 °C 38.5 °F /  3.6 °C 29.97 in /  1014.8 hPa Calm     94 % 0.07 in /  1.78 mm
07:16 40.0 °F /  4.4 °C 38.4 °F /  3.6 °C 29.97 in /  1014.8 hPa ESE 1.0 mph /  1.6 km/h   94 % 0.06 in /  1.52 mm
07:21 40.1 °F /  4.5 °C 38.5 °F /  3.6 °C 29.97 in /  1014.8 hPa Calm     94 % 0.06 in /  1.52 mm
07:26 40.1 °F /  4.5 °C 38.5 °F /  3.6 °C 29.97 in /  1014.8 hPa Calm     94 % 0.05 in /  1.27 mm
07:31 40.2 °F /  4.6 °C 38.6 °F /  3.7 °C 29.97 in /  1014.8 hPa Calm     94 % 0.05 in /  1.27 mm
07:36 40.2 °F /  4.6 °C 38.6 °F /  3.7 °C 29.97 in /  1014.8 hPa Calm     94 % 0.04 in /  1.02 mm
07:41 40.3 °F /  4.6 °C 38.7 °F /  3.7 °C 29.98 in /  1015.1 hPa Calm     94 % 0.03 in /  0.76 mm
07:46 40.4 °F /  4.7 °C 38.8 °F /  3.8 °C 29.98 in /  1015.1 hPa Calm     94 % 0.02 in /  0.51 mm
07:51 40.4 °F /  4.7 °C 38.8 °F /  3.8 °C 29.98 in /  1015.1 hPa Calm     94 % 0.02 in /  0.51 mm
07:56 40.5 °F /  4.7 °C 38.9 °F /  3.8 °C 29.98 in /  1015.1 hPa Calm     94 % 0.02 in /  0.51 mm
08:01 40.6 °F /  4.8 °C 39.0 °F /  3.9 °C 29.98 in /  1015.1 hPa Calm     94 % 0.01 in /  0.25 mm
08:02 40.6 °F /  4.8 °C 39.0 °F /  3.9 °C 29.98 in /  1015.1 hPa Calm     94 % 0.01 in /  0.25 mm
08:07 40.6 °F /  4.8 °C 39.0 °F /  3.9 °C 29.99 in /  1015.5 hPa Calm     94 % 0.02 in /  0.51 mm
08:12 40.7 °F /  4.8 °C 39.1 °F /  3.9 °C 29.99 in /  1015.5 hPa Calm     94 % 0.01 in /  0.25 mm
08:17 40.7 °F /  4.8 °C 39.1 °F /  3.9 °C 29.99 in /  1015.5 hPa Calm     94 % 0.01 in /  0.25 mm
08:22 40.8 °F /  4.9 °C 39.2 °F /  4 °C 29.99 in /  1015.5 hPa Calm     94 % 0.01 in /  0.25 mm
08:27 40.9 °F /  4.9 °C 39.3 °F /  4.1 °C 30.00 in /  1015.8 hPa Calm     94 % 0.01 in /  0.25 mm
08:32 41.0 °F /  5 °C 39.4 °F /  4.1 °C 30.00 in /  1015.8 hPa Calm     94 % 0.02 in /  0.51 mm
08:37 41.0 °F /  5 °C 39.4 °F /  4.1 °C 30.00 in /  1015.8 hPa Calm     94 % 0.02 in /  0.51 mm
08:38 41.1 °F /  5.1 °C 39.5 °F /  4.2 °C 30.00 in /  1015.8 hPa Calm     94 % 0.02 in /  0.51 mm
08:43 41.1 °F /  5.1 °C 39.2 °F /  4 °C 30.00 in /  1015.8 hPa Calm     93 % 0.02 in /  0.51 mm
08:48 41.1 °F /  5.1 °C 39.2 °F /  4 °C 30.00 in /  1015.8 hPa Calm     93 % 0.02 in /  0.51 mm
08:53 41.2 °F /  5.1 °C 39.3 °F /  4.1 °C 30.01 in /  1016.1 hPa Calm     93 % 0.02 in /  0.51 mm
08:58 41.3 °F /  5.2 °C 39.4 °F /  4.1 °C 30.01 in /  1016.1 hPa Calm     93 % 0.02 in /  0.51 mm
09:03 41.3 °F /  5.2 °C 39.4 °F /  4.1 °C 30.02 in /  1016.5 hPa Calm     93 % 0.02 in /  0.51 mm
09:08 41.4 °F /  5.2 °C 39.5 °F /  4.2 °C 30.02 in /  1016.5 hPa Calm     93 % 0.01 in /  0.25 mm
09:13 41.4 °F /  5.2 °C 39.5 °F /  4.2 °C 30.02 in /  1016.5 hPa Calm     93 % 0.01 in /  0.25 mm
09:18 41.5 °F /  5.3 °C 39.6 °F /  4.2 °C 30.02 in /  1016.5 hPa Calm     93 % 0.01 in /  0.25 mm
09:23 41.8 °F /  5.4 °C 39.9 °F /  4.4 °C 30.03 in /  1016.8 hPa Calm     93 % 0.01 in /  0.25 mm
09:28 41.9 °F /  5.5 °C 39.7 °F /  4.3 °C 30.03 in /  1016.8 hPa Calm     92 % 0.01 in /  0.25 mm
09:33 42.0 °F /  5.6 °C 39.8 °F /  4.3 °C 30.03 in /  1016.8 hPa Calm     92 % 0.00 in /  0 mm
09:38 42.5 °F /  5.8 °C 40.3 °F /  4.6 °C 30.04 in /  1017.2 hPa Calm     92 % 0.00 in /  0 mm
09:43 43.0 °F /  6.1 °C 40.8 °F /  4.9 °C 30.04 in /  1017.2 hPa Calm     92 % 0.00 in /  0 mm
09:48 43.4 °F /  6.3 °C 41.2 °F /  5.1 °C 30.04 in /  1017.2 hPa Calm     92 % 0.00 in /  0 mm
09:53 43.6 °F /  6.4 °C 41.1 °F /  5.1 °C 30.05 in /  1017.5 hPa ESE 1.2 mph /  1.9 km/h   91 % 0.00 in /  0 mm
09:58 44.2 °F /  6.8 °C 41.7 °F /  5.4 °C 30.05 in /  1017.5 hPa Calm     91 % 0.00 in /  0 mm
10:03 44.0 °F /  6.7 °C 41.0 °F /  5 °C 30.05 in /  1017.5 hPa ESE 1.2 mph /  1.9 km/h 1.2 mph /  1.9 km/h 89 % 0.00 in /  0 mm
10:08 44.1 °F /  6.7 °C 41.4 °F /  5.2 °C 30.05 in /  1017.5 hPa ESE 1.2 mph /  1.9 km/h 1.2 mph /  1.9 km/h 90 % 0.01 in /  0.25 mm
10:13 44.3 °F /  6.8 °C 41.0 °F /  5 °C 30.05 in /  1017.5 hPa NNW 1.2 mph /  1.9 km/h 1.2 mph /  1.9 km/h 88 % 0.01 in /  0.25 mm
10:18 44.5 °F /  6.9 °C 41.2 °F /  5.1 °C 30.06 in /  1017.8 hPa WNW 2.3 mph /  3.7 km/h 2.3 mph /  3.7 km/h 88 % 0.01 in /  0.25 mm
10:23 44.6 °F /  7 °C 41.0 °F /  5 °C 30.06 in /  1017.8 hPa WNW 3.5 mph /  5.6 km/h 3.5 mph /  5.6 km/h 87 % 0.01 in /  0.25 mm
10:33 44.9 °F /  7.2 °C 41.3 °F /  5.2 °C 30.06 in /  1017.8 hPa Calm     87 % 0.01 in /  0.25 mm
10:38 45.1 °F /  7.3 °C 41.5 °F /  5.3 °C 30.06 in /  1017.8 hPa West 1.2 mph /  1.9 km/h 1.2 mph /  1.9 km/h 87 % 0.01 in /  0.25 mm
10:43 45.4 °F /  7.4 °C 41.8 °F /  5.4 °C 30.07 in /  1018.2 hPa Calm     87 % 0.01 in /  0.25 mm
10:48 45.5 °F /  7.5 °C 41.3 °F /  5.2 °C 30.07 in /  1018.2 hPa West 1.2 mph /  1.9 km/h 1.2 mph /  1.9 km/h 85 % 0.01 in /  0.25 mm
10:53 45.3 °F /  7.4 °C 40.7 °F /  4.8 °C 30.07 in /  1018.2 hPa NNW 1.2 mph /  1.9 km/h 1.2 mph /  1.9 km/h 84 % 0.01 in /  0.25 mm
10:58 45.4 °F /  7.4 °C 41.5 °F /  5.3 °C 30.08 in /  1018.5 hPa Calm     86 % 0.01 in /  0.25 mm
11:03 45.6 °F /  7.6 °C 41.7 °F /  5.4 °C 30.08 in /  1018.5 hPa Calm     86 % 0.01 in /  0.25 mm
11:08 45.7 °F /  7.6 °C 41.4 °F /  5.2 °C 30.08 in /  1018.5 hPa SSE 1.0 mph /  1.6 km/h 1.0 mph /  1.6 km/h 85 % 0.00 in /  0 mm
11:13 45.7 °F /  7.6 °C 41.4 °F /  5.2 °C 30.08 in /  1018.5 hPa Calm     85 % 0.00 in /  0 mm
11:18 45.6 °F /  7.6 °C 41.0 °F /  5 °C 30.08 in /  1018.5 hPa Calm   0.1 mph /  0.2 km/h 84 % 0.00 in /  0 mm
11:23 45.7 °F /  7.6 °C 41.1 °F /  5.1 °C 30.08 in /  1018.5 hPa SSE 1.2 mph /  1.9 km/h   84 % 0.00 in /  0 mm
11:28 45.6 °F /  7.6 °C 40.4 °F /  4.7 °C 30.08 in /  1018.5 hPa West 2.3 mph /  3.7 km/h 2.3 mph /  3.7 km/h 82 % 0.00 in /  0 mm
11:33 45.5 °F /  7.5 °C 40.9 °F /  4.9 °C 30.07 in /  1018.2 hPa NW 1.2 mph /  1.9 km/h 1.2 mph /  1.9 km/h 84 % 0.00 in /  0 mm
11:38 45.6 °F /  7.6 °C 40.7 °F /  4.8 °C 30.07 in /  1018.2 hPa Calm     83 % 0.00 in /  0 mm
11:43 45.8 °F /  7.7 °C 40.9 °F /  4.9 °C 30.07 in /  1018.2 hPa NW 2.3 mph /  3.7 km/h 2.3 mph /  3.7 km/h 83 % 0.00 in /  0 mm
11:48 45.6 °F /  7.6 °C 40.1 °F /  4.5 °C 30.07 in /  1018.2 hPa Calm     81 % 0.00 in /  0 mm
11:53 45.6 °F /  7.6 °C 40.4 °F /  4.7 °C 30.07 in /  1018.2 hPa Calm     82 % 0.00 in /  0 mm
11:58 45.8 °F /  7.7 °C 40.9 °F /  4.9 °C 30.07 in /  1018.2 hPa WNW 1.2 mph /  1.9 km/h 1.2 mph /  1.9 km/h 83 % 0.00 in /  0 mm
12:03 46.1 °F /  7.8 °C 41.2 °F /  5.1 °C 30.07 in /  1018.2 hPa NW 2.3 mph /  3.7 km/h 2.3 mph /  3.7 km/h 83 % 0.00 in /  0 mm
12:08 46.3 °F /  7.9 °C 41.4 °F /  5.2 °C 30.07 in /  1018.2 hPa Calm     83 % 0.00 in /  0 mm
12:13 46.8 °F /  8.2 °C 41.6 °F /  5.3 °C 30.07 in /  1018.2 hPa NW 1.2 mph /  1.9 km/h   82 % 0.00 in /  0 mm
12:18 46.7 °F /  8.2 °C 41.2 °F /  5.1 °C 30.07 in /  1018.2 hPa WNW 1.2 mph /  1.9 km/h 1.2 mph /  1.9 km/h 81 % 0.00 in /  0 mm
12:23 46.6 °F /  8.1 °C 41.1 °F /  5.1 °C 30.07 in /  1018.2 hPa NW 1.0 mph /  1.6 km/h 1.0 mph /  1.6 km/h 81 % 0.00 in /  0 mm
12:28 46.6 °F /  8.1 °C 41.1 °F /  5.1 °C 30.07 in /  1018.2 hPa Calm     81 % 0.00 in /  0 mm
12:33 46.5 °F /  8.1 °C 40.3 °F /  4.6 °C 30.07 in /  1018.2 hPa Calm   0.1 mph /  0.2 km/h 79 % 0.00 in /  0 mm
12:38 46.5 °F /  8.1 °C 40.3 °F /  4.6 °C 30.07 in /  1018.2 hPa NNW 1.2 mph /  1.9 km/h   79 % 0.00 in /  0 mm
12:43 46.9 °F /  8.3 °C 41.1 °F /  5.1 °C 30.07 in /  1018.2 hPa NW 2.3 mph /  3.7 km/h 2.3 mph /  3.7 km/h 80 % 0.00 in /  0 mm
12:48 47.3 °F /  8.5 °C 40.5 °F /  4.7 °C 30.07 in /  1018.2 hPa WNW 1.2 mph /  1.9 km/h   77 % 0.00 in /  0 mm
12:53 47.5 °F /  8.6 °C 41.3 °F /  5.2 °C 30.07 in /  1018.2 hPa NNW 2.3 mph /  3.7 km/h 2.3 mph /  3.7 km/h 79 % 0.00 in /  0 mm
12:58 47.7 °F /  8.7 °C 41.2 °F /  5.1 °C 30.07 in /  1018.2 hPa Calm     78 % 0.00 in /  0 mm
13:03 47.9 °F /  8.8 °C 41.7 °F /  5.4 °C 30.07 in /  1018.2 hPa Calm     79 % 0.00 in /  0 mm
13:09 48.0 °F /  8.9 °C 41.1 °F /  5.1 °C 30.07 in /  1018.2 hPa Calm     77 % 0.00 in /  0 mm
13:14 47.9 °F /  8.8 °C 41.0 °F /  5 °C 30.07 in /  1018.2 hPa WNW 1.2 mph /  1.9 km/h 1.2 mph /  1.9 km/h 77 % 0.00 in /  0 mm
13:19 47.9 °F /  8.8 °C 41.0 °F /  5 °C 30.07 in /  1018.2 hPa NW 1.2 mph /  1.9 km/h   77 % 0.00 in /  0 mm
13:24 48.0 °F /  8.9 °C 40.8 °F /  4.9 °C 30.07 in /  1018.2 hPa NW 3.5 mph /  5.6 km/h 3.5 mph /  5.6 km/h 76 % 0.00 in /  0 mm
13:29 48.1 °F /  8.9 °C 40.9 °F /  4.9 °C 30.07 in /  1018.2 hPa West 1.0 mph /  1.6 km/h 1.0 mph /  1.6 km/h 76 % 0.00 in /  0 mm
13:34 48.5 °F /  9.2 °C 41.3 °F /  5.2 °C 30.07 in /  1018.2 hPa NNW 1.2 mph /  1.9 km/h 1.2 mph /  1.9 km/h 76 % 0.00 in /  0 mm
13:39 49.0 °F /  9.4 °C 41.4 °F /  5.2 °C 30.07 in /  1018.2 hPa WNW 1.2 mph /  1.9 km/h 1.2 mph /  1.9 km/h 75 % 0.00 in /  0 mm
13:44 49.1 °F /  9.5 °C 41.2 °F /  5.1 °C 30.07 in /  1018.2 hPa North 2.3 mph /  3.7 km/h 2.3 mph /  3.7 km/h 74 % 0.00 in /  0 mm
13:49 49.1 °F /  9.5 °C 40.8 °F /  4.9 °C 30.07 in /  1018.2 hPa Calm     73 % 0.00 in /  0 mm
13:54 49.0 °F /  9.4 °C 40.4 °F /  4.7 °C 30.07 in /  1018.2 hPa Calm     72 % 0.00 in /  0 mm
13:59 48.9 °F /  9.4 °C 40.6 °F /  4.8 °C 30.07 in /  1018.2 hPa Calm     73 % 0.00 in /  0 mm
14:04 48.9 °F /  9.4 °C 41.0 °F /  5 °C 30.07 in /  1018.2 hPa NW 2.3 mph /  3.7 km/h 2.3 mph /  3.7 km/h 74 % 0.00 in /  0 mm
14:09 48.9 °F /  9.4 °C 41.0 °F /  5 °C 30.07 in /  1018.2 hPa WNW 1.2 mph /  1.9 km/h 1.2 mph /  1.9 km/h 74 % 0.00 in /  0 mm
14:14 48.9 °F /  9.4 °C 41.0 °F /  5 °C 30.07 in /  1018.2 hPa NW 2.3 mph /  3.7 km/h 2.3 mph /  3.7 km/h 74 % 0.00 in /  0 mm
14:19 48.8 °F /  9.3 °C 40.9 °F /  4.9 °C 30.07 in /  1018.2 hPa Calm     74 % 0.00 in /  0 mm
14:24 48.8 °F /  9.3 °C 40.9 °F /  4.9 °C 30.07 in /  1018.2 hPa WNW 1.2 mph /  1.9 km/h 1.2 mph /  1.9 km/h 74 % 0.00 in /  0 mm
14:29 48.9 °F /  9.4 °C 41.0 °F /  5 °C 30.07 in /  1018.2 hPa North 2.3 mph /  3.7 km/h 2.3 mph /  3.7 km/h 74 % 0.00 in /  0 mm
14:34 49.0 °F /  9.4 °C 41.4 °F /  5.2 °C 30.07 in /  1018.2 hPa NW 1.2 mph /  1.9 km/h 1.2 mph /  1.9 km/h 75 % 0.00 in /  0 mm
14:39 49.0 °F /  9.4 °C 40.7 °F /  4.8 °C 30.07 in /  1018.2 hPa NW 3.5 mph /  5.6 km/h 3.5 mph /  5.6 km/h 73 % 0.00 in /  0 mm
14:44 49.0 °F /  9.4 °C 41.1 °F /  5.1 °C 30.07 in /  1018.2 hPa Calm     74 % 0.00 in /  0 mm
14:49 49.1 °F /  9.5 °C 40.8 °F /  4.9 °C 30.07 in /  1018.2 hPa WNW 1.2 mph /  1.9 km/h   73 % 0.00 in /  0 mm
14:54 49.6 °F /  9.8 °C 41.7 °F /  5.4 °C 30.07 in /  1018.2 hPa SW 1.2 mph /  1.9 km/h 1.2 mph /  1.9 km/h 74 % 0.00 in /  0 mm
14:59 50.3 °F /  10.2 °C 41.6 °F /  5.3 °C 30.07 in /  1018.2 hPa NW 3.5 mph /  5.6 km/h 3.5 mph /  5.6 km/h 72 % 0.00 in /  0 mm
15:04 50.4 °F /  10.2 °C 41.3 °F /  5.2 °C 30.07 in /  1018.2 hPa NW 4.0 mph /  6.4 km/h 4.0 mph /  6.4 km/h 71 % 0.00 in /  0 mm
15:09 50.6 °F /  10.3 °C 42.3 °F /  5.7 °C 30.07 in /  1018.2 hPa NW 6.9 mph /  11.1 km/h 6.9 mph /  11.1 km/h 73 % 0.00 in /  0 mm
15:14 50.1 °F /  10.1 °C 41.4 °F /  5.2 °C 30.07 in /  1018.2 hPa NW 3.5 mph /  5.6 km/h 3.5 mph /  5.6 km/h 72 % 0.00 in /  0 mm
15:19 49.8 °F /  9.9 °C 41.5 °F /  5.3 °C 30.08 in /  1018.5 hPa West 2.3 mph /  3.7 km/h 2.3 mph /  3.7 km/h 73 % 0.00 in /  0 mm
15:24 49.7 °F /  9.8 °C 41.4 °F /  5.2 °C 30.08 in /  1018.5 hPa WNW 3.5 mph /  5.6 km/h 3.5 mph /  5.6 km/h 73 % 0.00 in /  0 mm
15:29 49.7 °F /  9.8 °C 41.4 °F /  5.2 °C 30.08 in /  1018.5 hPa Calm     73 % 0.00 in /  0 mm
15:34 49.8 °F /  9.9 °C 41.5 °F /  5.3 °C 30.08 in /  1018.5 hPa NW 2.3 mph /  3.7 km/h   73 % 0.00 in /  0 mm
15:39 49.9 °F /  9.9 °C 41.2 °F /  5.1 °C 30.08 in /  1018.5 hPa NNW 1.2 mph /  1.9 km/h   72 % 0.00 in /  0 mm
15:44 49.6 °F /  9.8 °C 40.9 °F /  4.9 °C 30.08 in /  1018.5 hPa NW 2.3 mph /  3.7 km/h 2.3 mph /  3.7 km/h 72 % 0.00 in /  0 mm
15:49 49.6 °F /  9.8 °C 40.9 °F /  4.9 °C 30.08 in /  1018.5 hPa Calm     72 % 0.00 in /  0 mm
15:54 49.7 °F /  9.8 °C 40.3 °F /  4.6 °C 30.08 in /  1018.5 hPa NW 1.2 mph /  1.9 km/h 1.2 mph /  1.9 km/h 70 % 0.00 in /  0 mm
15:59 49.5 °F /  9.7 °C 40.5 °F /  4.7 °C 30.08 in /  1018.5 hPa West 1.2 mph /  1.9 km/h 1.2 mph /  1.9 km/h 71 % 0.00 in /  0 mm
16:04 49.6 °F /  9.8 °C 40.6 °F /  4.8 °C 30.08 in /  1018.5 hPa NW 2.0 mph /  3.2 km/h 2.0 mph /  3.2 km/h 71 % 0.00 in /  0 mm
16:09 49.6 °F /  9.8 °C 40.6 °F /  4.8 °C 30.08 in /  1018.5 hPa Calm     71 % 0.00 in /  0 mm
16:14 49.6 °F /  9.8 °C 40.9 °F /  4.9 °C 30.09 in /  1018.8 hPa NW 2.3 mph /  3.7 km/h 2.3 mph /  3.7 km/h 72 % 0.00 in /  0 mm
16:19 49.7 °F /  9.8 °C 40.7 °F /  4.8 °C 30.09 in /  1018.8 hPa WNW 2.3 mph /  3.7 km/h 2.3 mph /  3.7 km/h 71 % 0.00 in /  0 mm
16:24 49.7 °F /  9.8 °C 40.3 °F /  4.6 °C 30.09 in /  1018.8 hPa NNW 2.3 mph /  3.7 km/h   70 % 0.00 in /  0 mm
16:29 49.8 °F /  9.9 °C 41.1 °F /  5.1 °C 30.09 in /  1018.8 hPa NW 2.3 mph /  3.7 km/h 2.3 mph /  3.7 km/h 72 % 0.00 in /  0 mm
16:34 49.6 °F /  9.8 °C 40.2 °F /  4.6 °C 30.09 in /  1018.8 hPa NW 1.2 mph /  1.9 km/h   70 % 0.00 in /  0 mm
16:39 49.3 °F /  9.6 °C 40.3 °F /  4.6 °C 30.09 in /  1018.8 hPa Calm     71 % 0.00 in /  0 mm
16:44 49.2 °F /  9.6 °C 40.6 °F /  4.8 °C 30.09 in /  1018.8 hPa Calm     72 % 0.00 in /  0 mm
16:49 49.2 °F /  9.6 °C 40.2 °F /  4.6 °C 30.09 in /  1018.8 hPa Calm     71 % 0.00 in /  0 mm
16:54 48.9 °F /  9.4 °C 40.3 °F /  4.6 °C 30.10 in /  1019.2 hPa West 1.2 mph /  1.9 km/h   72 % 0.00 in /  0 mm
16:59 48.8 °F /  9.3 °C 40.2 °F /  4.6 °C 30.10 in /  1019.2 hPa NW 2.3 mph /  3.7 km/h   72 % 0.00 in /  0 mm
17:04 48.6 °F /  9.2 °C 40.3 °F /  4.6 °C 30.10 in /  1019.2 hPa Calm     73 % 0.00 in /  0 mm
17:09 48.5 °F /  9.2 °C 40.2 °F /  4.6 °C 30.10 in /  1019.2 hPa NW 1.2 mph /  1.9 km/h 1.2 mph /  1.9 km/h 73 % 0.00 in /  0 mm
17:14 48.3 °F /  9.1 °C 40.0 °F /  4.4 °C 30.10 in /  1019.2 hPa Calm     73 % 0.00 in /  0 mm
17:19 48.3 °F /  9.1 °C 40.0 °F /  4.4 °C 30.10 in /  1019.2 hPa Calm     73 % 0.00 in /  0 mm
17:25 48.2 °F /  9 °C 40.3 °F /  4.6 °C 30.11 in /  1019.5 hPa Calm     74 % 0.00 in /  0 mm
17:30 48.1 °F /  8.9 °C 40.2 °F /  4.6 °C 30.11 in /  1019.5 hPa Calm     74 % 0.00 in /  0 mm
17:35 48.1 °F /  8.9 °C 40.2 °F /  4.6 °C 30.11 in /  1019.5 hPa Calm     74 % 0.00 in /  0 mm
17:40 48.1 °F /  8.9 °C 40.2 °F /  4.6 °C 30.11 in /  1019.5 hPa Calm     74 % 0.00 in /  0 mm
17:45 48.0 °F /  8.9 °C 40.1 °F /  4.5 °C 30.11 in /  1019.5 hPa Calm     74 % 0.00 in /  0 mm
17:50 47.7 °F /  8.7 °C 39.5 °F /  4.2 °C 30.11 in /  1019.5 hPa Calm     73 % 0.00 in /  0 mm
17:55 47.6 °F /  8.7 °C 39.4 °F /  4.1 °C 30.11 in /  1019.5 hPa Calm     73 % 0.00 in /  0 mm
18:00 47.2 °F /  8.4 °C 39.3 °F /  4.1 °C 30.11 in /  1019.5 hPa Calm     74 % 0.00 in /  0 mm
18:05 46.9 °F /  8.3 °C 40.1 °F /  4.5 °C 30.11 in /  1019.5 hPa Calm     77 % 0.00 in /  0 mm
18:10 46.5 °F /  8.1 °C 40.0 °F /  4.4 °C 30.11 in /  1019.5 hPa Calm     78 % 0.00 in /  0 mm
18:15 46.1 °F /  7.8 °C 39.9 °F /  4.4 °C 30.11 in /  1019.5 hPa Calm     79 % 0.00 in /  0 mm
18:20 45.7 °F /  7.6 °C 39.9 °F /  4.4 °C 30.11 in /  1019.5 hPa Calm     80 % 0.00 in /  0 mm
18:25 45.4 °F /  7.4 °C 39.6 °F /  4.2 °C 30.11 in /  1019.5 hPa Calm     80 % 0.00 in /  0 mm
18:30 45.1 °F /  7.3 °C 39.9 °F /  4.4 °C 30.11 in /  1019.5 hPa Calm     82 % 0.00 in /  0 mm
18:35 44.9 °F /  7.2 °C 39.7 °F /  4.3 °C 30.11 in /  1019.5 hPa Calm     82 % 0.00 in /  0 mm
18:40 44.8 °F /  7.1 °C 40.3 °F /  4.6 °C 30.12 in /  1019.9 hPa Calm     84 % 0.00 in /  0 mm
18:45 44.7 °F /  7.1 °C 40.5 °F /  4.7 °C 30.12 in /  1019.9 hPa Calm     85 % 0.00 in /  0 mm
18:50 44.6 °F /  7 °C 40.7 °F /  4.8 °C 30.12 in /  1019.9 hPa Calm     86 % 0.00 in /  0 mm
18:55 44.5 °F /  6.9 °C 40.9 °F /  4.9 °C 30.12 in /  1019.9 hPa Calm     87 % 0.00 in /  0 mm
19:00 44.4 °F /  6.9 °C 40.8 °F /  4.9 °C 30.12 in /  1019.9 hPa Calm     87 % 0.00 in /  0 mm
19:05 44.4 °F /  6.9 °C 41.1 °F /  5.1 °C 30.12 in /  1019.9 hPa Calm     88 % 0.00 in /  0 mm
19:10 44.2 °F /  6.8 °C 40.9 °F /  4.9 °C 30.12 in /  1019.9 hPa Calm     88 % 0.00 in /  0 mm
19:15 43.8 °F /  6.6 °C 40.5 °F /  4.7 °C 30.12 in /  1019.9 hPa Calm     88 % 0.00 in /  0 mm
19:20 43.4 °F /  6.3 °C 40.1 °F /  4.5 °C 30.12 in /  1019.9 hPa Calm     88 % 0.00 in /  0 mm
19:25 43.0 °F /  6.1 °C 39.7 °F /  4.3 °C 30.12 in /  1019.9 hPa Calm     88 % 0.00 in /  0 mm
19:30 42.7 °F /  5.9 °C 39.7 °F /  4.3 °C 30.12 in /  1019.9 hPa Calm     89 % 0.00 in /  0 mm
19:35 42.8 °F /  6 °C 39.8 °F /  4.3 °C 30.12 in /  1019.9 hPa Calm     89 % 0.00 in /  0 mm
19:40 43.1 °F /  6.2 °C 39.8 °F /  4.3 °C 30.12 in /  1019.9 hPa Calm     88 % 0.00 in /  0 mm
19:45 43.2 °F /  6.2 °C 39.6 °F /  4.2 °C 30.12 in /  1019.9 hPa Calm     87 % 0.00 in /  0 mm
19:50 42.9 °F /  6.1 °C 39.0 °F /  3.9 °C 30.13 in /  1020.2 hPa Calm     86 % 0.00 in /  0 mm
19:55 42.4 °F /  5.8 °C 38.5 °F /  3.6 °C 30.13 in /  1020.2 hPa Calm     86 % 0.00 in /  0 mm
20:00 42.1 °F /  5.6 °C 38.5 °F /  3.6 °C 30.13 in /  1020.2 hPa Calm     87 % 0.00 in /  0 mm
20:05 42.0 °F /  5.6 °C 38.7 °F /  3.7 °C 30.13 in /  1020.2 hPa Calm     88 % 0.00 in /  0 mm
20:10 41.7 °F /  5.4 °C 38.1 °F /  3.4 °C 30.13 in /  1020.2 hPa Calm     87 % 0.00 in /  0 mm
20:15 41.3 °F /  5.2 °C 37.7 °F /  3.2 °C 30.14 in /  1020.5 hPa Calm     87 % 0.00 in /  0 mm
20:20 41.0 °F /  5 °C 38.0 °F /  3.3 °C 30.14 in /  1020.5 hPa Calm     89 % 0.00 in /  0 mm
20:25 40.8 °F /  4.9 °C 37.8 °F /  3.2 °C 30.14 in /  1020.5 hPa Calm     89 % 0.00 in /  0 mm
20:30 40.7 °F /  4.8 °C 38.0 °F /  3.3 °C 30.14 in /  1020.5 hPa Calm     90 % 0.00 in /  0 mm
20:35 40.6 °F /  4.8 °C 37.9 °F /  3.3 °C 30.14 in /  1020.5 hPa Calm     90 % 0.00 in /  0 mm
20:40 40.4 °F /  4.7 °C 37.7 °F /  3.2 °C 30.15 in /  1020.9 hPa Calm     90 % 0.00 in /  0 mm
20:45 40.4 °F /  4.7 °C 38.0 °F /  3.3 °C 30.15 in /  1020.9 hPa Calm     91 % 0.00 in /  0 mm
20:50 40.3 °F /  4.6 °C 37.9 °F /  3.3 °C 30.15 in /  1020.9 hPa Calm     91 % 0.00 in /  0 mm
20:55 40.2 °F /  4.6 °C 37.8 °F /  3.2 °C 30.16 in /  1021.2 hPa Calm     91 % 0.00 in /  0 mm
21:00 40.1 °F /  4.5 °C 37.7 °F /  3.2 °C 30.16 in /  1021.2 hPa Calm     91 % 0.00 in /  0 mm
21:05 40.0 °F /  4.4 °C 37.6 °F /  3.1 °C 30.16 in /  1021.2 hPa Calm     91 % 0.00 in /  0 mm
21:10 39.8 °F /  4.3 °C 37.4 °F /  3 °C 30.16 in /  1021.2 hPa Calm     91 % 0.00 in /  0 mm
21:15 39.7 °F /  4.3 °C 37.3 °F /  2.9 °C 30.16 in /  1021.2 hPa Calm     91 % 0.00 in /  0 mm
21:20 39.4 °F /  4.1 °C 37.0 °F /  2.8 °C 30.16 in /  1021.2 hPa Calm     91 % 0.00 in /  0 mm
21:25 39.3 °F /  4.1 °C 37.2 °F /  2.9 °C 30.16 in /  1021.2 hPa Calm     92 % 0.00 in /  0 mm
21:30 39.2 °F /  4 °C 37.1 °F /  2.8 °C 30.16 in /  1021.2 hPa Calm     92 % 0.00 in /  0 mm
21:35 39.0 °F /  3.9 °C 36.9 °F /  2.7 °C 30.16 in /  1021.2 hPa Calm     92 % 0.00 in /  0 mm
21:40 38.8 °F /  3.8 °C 36.7 °F /  2.6 °C 30.16 in /  1021.2 hPa Calm     92 % 0.00 in /  0 mm
21:45 38.7 °F /  3.7 °C 36.6 °F /  2.6 °C 30.16 in /  1021.2 hPa Calm     92 % 0.00 in /  0 mm
21:50 38.7 °F /  3.7 °C 36.9 °F /  2.7 °C 30.16 in /  1021.2 hPa Calm     93 % 0.00 in /  0 mm
21:55 38.8 °F /  3.8 °C 36.9 °F /  2.7 °C 30.16 in /  1021.2 hPa Calm     93 % 0.00 in /  0 mm
22:00 38.9 °F /  3.8 °C 37.0 °F /  2.8 °C 30.16 in /  1021.2 hPa Calm     93 % 0.00 in /  0 mm
22:05 38.9 °F /  3.8 °C 37.0 °F /  2.8 °C 30.16 in /  1021.2 hPa Calm     93 % 0.00 in /  0 mm
22:10 38.5 °F /  3.6 °C 36.7 °F /  2.6 °C 30.16 in /  1021.2 hPa Calm     93 % 0.00 in /  0 mm
22:15 38.1 °F /  3.4 °C 36.0 °F /  2.2 °C 30.16 in /  1021.2 hPa Calm     92 % 0.00 in /  0 mm
22:20 37.8 °F /  3.2 °C 35.7 °F /  2.1 °C 30.17 in /  1021.6 hPa Calm     92 % 0.00 in /  0 mm
22:25 37.5 °F /  3.1 °C 35.4 °F /  1.9 °C 30.17 in /  1021.6 hPa Calm     92 % 0.00 in /  0 mm
22:30 37.6 °F /  3.1 °C 35.8 °F /  2.1 °C 30.17 in /  1021.6 hPa Calm     93 % 0.00 in /  0 mm
22:35 37.5 °F /  3.1 °C 35.7 °F /  2.1 °C 30.17 in /  1021.6 hPa Calm     93 % 0.00 in /  0 mm
22:40 37.2 °F /  2.9 °C 35.4 °F /  1.9 °C 30.17 in /  1021.6 hPa Calm     93 % 0.00 in /  0 mm
22:45 36.9 °F /  2.7 °C 35.1 °F /  1.7 °C 30.16 in /  1021.2 hPa Calm     93 % 0.00 in /  0 mm
22:50 36.8 °F /  2.7 °C 35.0 °F /  1.7 °C 30.16 in /  1021.2 hPa Calm     93 % 0.00 in /  0 mm
22:55 36.6 °F /  2.6 °C 34.8 °F /  1.6 °C 30.16 in /  1021.2 hPa Calm     93 % 0.00 in /  0 mm
23:00 36.4 °F /  2.4 °C 34.6 °F /  1.4 °C 30.16 in /  1021.2 hPa Calm     93 % 0.00 in /  0 mm
23:05 36.2 °F /  2.3 °C 34.4 °F /  1.3 °C 30.16 in /  1021.2 hPa Calm     93 % 0.00 in /  0 mm
23:10 36.1 °F /  2.3 °C 34.3 °F /  1.3 °C 30.16 in /  1021.2 hPa Calm     93 % 0.00 in /  0 mm
23:15 36.0 °F /  2.2 °C 34.2 °F /  1.2 °C 30.16 in /  1021.2 hPa Calm     93 % 0.00 in /  0 mm
23:21 35.8 °F /  2.1 °C 34.0 °F /  1.1 °C 30.16 in /  1021.2 hPa Calm     93 % 0.00 in /  0 mm
23:26 35.7 °F /  2.1 °C 33.9 °F /  1.1 °C 30.17 in /  1021.6 hPa Calm     93 % 0.00 in /  0 mm
23:31 35.8 °F /  2.1 °C 34.2 °F /  1.2 °C 30.17 in /  1021.6 hPa Calm     94 % 0.00 in /  0 mm
23:36 35.7 °F /  2.1 °C 34.1 °F /  1.2 °C 30.17 in /  1021.6 hPa Calm     94 % 0.00 in /  0 mm
23:41 35.6 °F /  2 °C 34.0 °F /  1.1 °C 30.17 in /  1021.6 hPa Calm     94 % 0.00 in /  0 mm
23:46 35.8 °F /  2.1 °C 34.2 °F /  1.2 °C 30.17 in /  1021.6 hPa Calm     94 % 0.00 in /  0 mm
23:51 35.9 °F /  2.2 °C 34.3 °F /  1.3 °C 30.17 in /  1021.6 hPa Calm     94 % 0.00 in /  0 mm
23:56 36.0 °F /  2.2 °C 34.4 °F /  1.3 °C 30.17 in /  1021.6 hPa Calm     94 % 0.00 in /  0 mm
Park Place, Exeter, Tulare County, California, USA
Compliments of Weather Underground - 2.75 mb